createdAt,value
2018-06-16T00:01:05.428Z,6.77
2018-06-16T00:03:34.333Z,6.40
2018-06-16T00:06:02.513Z,6.40
2018-06-16T00:08:30.678Z,6.70
2018-06-16T00:10:58.900Z,6.70
2018-06-16T00:13:27.095Z,6.60
2018-06-16T00:15:55.574Z,6.37
2018-06-16T00:18:23.731Z,6.50
2018-06-16T00:20:51.896Z,6.90
2018-06-16T00:23:20.089Z,12.50
2018-06-16T00:25:48.450Z,6.43
2018-06-16T00:28:16.782Z,9.60
2018-06-16T00:30:44.964Z,9.20
2018-06-16T00:33:13.352Z,10.37
2018-06-16T00:35:41.585Z,7.33
2018-06-16T00:38:09.872Z,6.63
2018-06-16T00:40:38.458Z,6.33
2018-06-16T00:43:06.699Z,6.93
2018-06-16T00:45:34.909Z,7.03
2018-06-16T00:48:03.766Z,6.30
2018-06-16T00:50:32.065Z,6.50
2018-06-16T00:53:00.559Z,6.20
2018-06-16T00:55:28.811Z,6.30
2018-06-16T00:57:57.150Z,6.50
2018-06-16T01:00:25.319Z,6.27
2018-06-16T01:02:53.866Z,6.20
2018-06-16T01:05:22.053Z,6.43
2018-06-16T01:07:50.347Z,6.20
2018-06-16T01:10:18.706Z,6.97
2018-06-16T01:12:46.924Z,7.07
2018-06-16T01:15:15.179Z,6.40
2018-06-16T01:17:43.552Z,6.63
2018-06-16T01:20:11.741Z,6.67
2018-06-16T01:22:40.194Z,6.67
2018-06-16T01:25:09.022Z,6.43
2018-06-16T01:27:37.571Z,6.63
2018-06-16T01:30:05.816Z,6.57
2018-06-16T01:32:34.044Z,6.70
2018-06-16T01:35:02.256Z,6.23
2018-06-16T01:37:30.420Z,6.90
2018-06-16T01:39:58.426Z,6.63
2018-06-16T01:42:26.890Z,6.57
2018-06-16T01:44:55.708Z,7.00
2018-06-16T01:47:23.890Z,7.73
2018-06-16T01:49:52.091Z,6.73
2018-06-16T01:52:20.304Z,7.67
2018-06-16T01:54:48.535Z,7.17
2018-06-16T01:57:16.817Z,7.50
2018-06-16T01:59:45.329Z,7.73
2018-06-16T02:02:13.807Z,7.73
2018-06-16T02:04:42.113Z,7.57
2018-06-16T02:07:10.314Z,7.93
2018-06-16T02:09:38.521Z,8.23
2018-06-16T02:12:06.738Z,7.93
2018-06-16T02:14:34.912Z,8.10
2018-06-16T02:17:03.146Z,8.13
2018-06-16T02:19:31.398Z,8.63
2018-06-16T02:21:59.703Z,8.53
2018-06-16T02:24:27.905Z,8.93
2018-06-16T02:26:56.120Z,8.33
2018-06-16T02:29:24.571Z,8.67
2018-06-16T02:31:53.523Z,8.70
2018-06-16T02:34:22.176Z,9.30
2018-06-16T02:36:50.353Z,8.50
2018-06-16T02:39:18.604Z,9.00
2018-06-16T02:41:46.822Z,8.47
2018-06-16T02:44:15.079Z,8.77
2018-06-16T02:46:43.284Z,8.87
2018-06-16T02:49:11.624Z,8.73
2018-06-16T02:51:40.159Z,8.10
2018-06-16T02:54:08.361Z,8.53
2018-06-16T02:56:36.564Z,8.23
2018-06-16T02:59:05.163Z,8.10
2018-06-16T03:01:33.387Z,8.40
2018-06-16T03:04:01.569Z,8.33
2018-06-16T03:06:29.780Z,8.10
2018-06-16T03:08:58.019Z,7.93
2018-06-16T03:11:26.653Z,8.03
2018-06-16T03:13:55.088Z,7.63
2018-06-16T03:16:23.291Z,8.00
2018-06-16T03:18:51.529Z,7.97
2018-06-16T03:21:19.785Z,7.80
2018-06-16T03:23:47.990Z,8.03
2018-06-16T03:26:16.177Z,7.97
2018-06-16T03:28:44.288Z,7.73
2018-06-16T03:31:12.819Z,7.63
2018-06-16T03:33:41.017Z,7.93
2018-06-16T03:36:09.199Z,8.00
2018-06-16T03:38:37.501Z,7.63
2018-06-16T03:41:05.700Z,7.53
2018-06-16T03:43:33.999Z,7.70
2018-06-16T03:46:02.272Z,7.63
2018-06-16T03:48:30.494Z,7.93
2018-06-16T03:50:58.720Z,7.67
2018-06-16T03:53:26.961Z,8.40
2018-06-16T03:55:55.181Z,8.03
2018-06-16T03:58:23.355Z,7.97
2018-06-16T04:00:52.254Z,7.90
2018-06-16T04:03:20.414Z,7.80
2018-06-16T04:05:48.740Z,7.77
2018-06-16T04:08:17.709Z,7.23
2018-06-16T04:10:45.894Z,7.83
2018-06-16T04:13:14.074Z,7.30
2018-06-16T04:15:42.268Z,7.47
2018-06-16T04:18:10.518Z,7.17
2018-06-16T04:20:38.650Z,7.77
2018-06-16T04:23:06.912Z,7.93
2018-06-16T04:25:35.318Z,7.20
2018-06-16T04:28:03.550Z,7.40
2018-06-16T04:30:31.724Z,7.40
2018-06-16T04:32:59.923Z,6.97
2018-06-16T04:35:28.544Z,7.40
2018-06-16T04:37:56.786Z,7.40
2018-06-16T04:40:26.011Z,8.63
2018-06-16T04:42:54.266Z,7.77
2018-06-16T04:45:22.464Z,7.80
2018-06-16T04:47:50.683Z,7.37
2018-06-16T04:50:18.903Z,7.60
2018-06-16T04:52:47.091Z,7.70
2018-06-16T04:55:15.559Z,7.60
2018-06-16T04:57:43.744Z,7.13
2018-06-16T05:00:12.090Z,7.37
2018-06-16T05:02:40.280Z,6.93
2018-06-16T05:05:08.949Z,6.67
2018-06-16T05:07:37.536Z,7.47
2018-06-16T05:10:05.992Z,7.07
2018-06-16T05:12:34.490Z,7.43
2018-06-16T05:15:02.842Z,7.20
2018-06-16T05:17:31.253Z,7.53
2018-06-16T05:20:00.019Z,7.60
2018-06-16T05:22:28.254Z,7.67
2018-06-16T05:24:56.496Z,7.53
2018-06-16T05:27:24.685Z,7.67
2018-06-16T05:29:53.178Z,8.10
2018-06-16T05:32:21.746Z,7.70
2018-06-16T05:34:49.978Z,7.60
2018-06-16T05:37:18.186Z,8.60
2018-06-16T05:39:46.537Z,7.87
2018-06-16T05:42:14.742Z,8.37
2018-06-16T05:44:42.948Z,7.87
2018-06-16T05:47:11.130Z,8.07
2018-06-16T05:49:39.449Z,7.70
2018-06-16T05:52:07.725Z,7.13
2018-06-16T05:54:35.864Z,7.73
2018-06-16T05:57:04.117Z,7.63
2018-06-16T05:59:32.315Z,7.57
2018-06-16T06:02:01.154Z,7.50
2018-06-16T06:04:29.444Z,6.73
2018-06-16T06:06:57.606Z,6.37
2018-06-16T06:09:25.886Z,6.40
2018-06-16T06:11:54.351Z,8.23
2018-06-16T06:14:22.516Z,7.10
2018-06-16T06:16:50.880Z,7.40
2018-06-16T06:19:19.073Z,6.97
2018-06-16T06:21:47.318Z,8.50
2018-06-16T06:24:15.548Z,7.70
2018-06-16T06:26:44.777Z,7.60
2018-06-16T06:29:13.032Z,7.60
2018-06-16T06:31:41.419Z,8.60
2018-06-16T06:34:09.998Z,7.63
2018-06-16T06:36:38.188Z,7.80
2018-06-16T06:39:08.847Z,7.50
2018-06-16T06:41:37.184Z,7.97
2018-06-16T06:44:06.239Z,7.70
2018-06-16T06:46:34.617Z,7.47
2018-06-16T06:49:02.917Z,12.55
2018-06-16T06:51:31.249Z,7.90
2018-06-16T06:54:00.036Z,8.00
2018-06-16T06:56:28.217Z,7.58
2018-06-16T06:58:56.519Z,8.03
2018-06-16T07:01:26.948Z,8.50
2018-06-16T07:03:55.760Z,8.13
2018-06-16T07:06:25.121Z,7.83
2018-06-16T07:08:53.585Z,7.37
2018-06-16T07:11:21.841Z,7.25
2018-06-16T07:13:50.400Z,7.53
2018-06-16T07:16:20.036Z,8.10
2018-06-16T07:18:48.449Z,7.45
2018-06-16T07:21:16.772Z,7.55
2018-06-16T07:23:45.618Z,7.83
2018-06-16T07:26:13.848Z,7.78
2018-06-16T07:28:42.089Z,7.50
2018-06-16T07:31:11.518Z,7.12
2018-06-16T07:33:39.911Z,7.95
2018-06-16T07:36:08.497Z,7.03
2018-06-16T07:38:37.218Z,7.05
2018-06-16T07:41:05.452Z,7.20
2018-06-16T07:43:33.811Z,7.40
2018-06-16T07:46:02.176Z,6.65
2018-06-16T07:48:30.469Z,14.07
2018-06-16T07:50:58.759Z,7.10
2018-06-16T07:53:27.044Z,6.53
2018-06-16T07:55:56.126Z,5.83
2018-06-16T07:58:25.257Z,6.08
2018-06-16T08:00:53.609Z,5.72
2018-06-16T08:03:21.850Z,11.45
2018-06-16T08:05:49.873Z,6.20
2018-06-16T08:08:18.447Z,6.60
2018-06-16T08:10:46.962Z,6.40
2018-06-16T08:13:15.801Z,6.20
2018-06-16T08:15:44.033Z,5.58
2018-06-16T08:18:12.387Z,6.83
2018-06-16T08:20:40.758Z,6.05
2018-06-16T08:23:09.070Z,5.72
2018-06-16T08:25:37.519Z,5.80
2018-06-16T08:28:05.831Z,6.42
2018-06-16T08:30:34.101Z,5.92
2018-06-16T08:33:02.302Z,3.87
2018-06-16T08:35:30.848Z,4.70
2018-06-16T08:37:59.185Z,4.80
2018-06-16T08:40:28.186Z,5.20
2018-06-16T08:42:57.608Z,9.08
2018-06-16T08:45:26.501Z,8.30
2018-06-16T08:47:54.745Z,6.65
2018-06-16T08:50:23.265Z,5.50
2018-06-16T08:52:52.149Z,5.70
2018-06-16T08:55:20.565Z,7.05
2018-06-16T08:57:48.767Z,5.12
2018-06-16T09:00:17.020Z,4.15
2018-06-16T09:02:45.274Z,5.42
2018-06-16T09:05:13.538Z,4.60
2018-06-16T09:07:43.969Z,4.83
2018-06-16T09:10:12.174Z,5.58
2018-06-16T09:12:40.376Z,5.12
2018-06-16T09:15:08.618Z,4.60
2018-06-16T09:17:36.824Z,3.77
2018-06-16T09:20:05.067Z,4.17
2018-06-16T09:22:33.315Z,5.17
2018-06-16T09:25:01.533Z,5.00
2018-06-16T09:27:29.494Z,5.05
2018-06-16T09:29:57.785Z,4.17
2018-06-16T09:32:25.958Z,3.85
2018-06-16T09:34:54.304Z,3.40
2018-06-16T09:37:22.528Z,3.60
2018-06-16T09:39:50.922Z,3.80
2018-06-16T09:42:19.173Z,3.92
2018-06-16T09:44:47.699Z,4.53
2018-06-16T09:47:22.314Z,4.15
2018-06-16T09:49:50.573Z,3.55
2018-06-16T09:52:18.864Z,4.62
2018-06-16T09:54:47.581Z,4.00
2018-06-16T09:57:15.954Z,4.25
2018-06-16T09:59:44.512Z,4.55
2018-06-16T10:02:13.418Z,4.15
2018-06-16T10:04:42.098Z,4.00
2018-06-16T10:07:10.483Z,4.40
2018-06-16T10:09:39.559Z,4.08
2018-06-16T10:12:07.866Z,4.15
2018-06-16T10:14:36.353Z,5.28
2018-06-16T10:17:05.146Z,4.47
2018-06-16T10:19:33.748Z,4.58
2018-06-16T10:22:02.088Z,3.85
2018-06-16T10:24:30.585Z,3.05
2018-06-16T10:26:59.446Z,3.33
2018-06-16T10:29:27.689Z,3.35
2018-06-16T10:31:55.946Z,4.10
2018-06-16T10:34:24.184Z,3.40
2018-06-16T10:36:52.474Z,3.12
2018-06-16T10:39:21.099Z,3.25
2018-06-16T10:41:49.799Z,6.90
2018-06-16T10:44:18.320Z,3.47
2018-06-16T10:46:46.521Z,3.50
2018-06-16T10:49:15.272Z,3.10
2018-06-16T10:51:43.692Z,3.33
2018-06-16T10:54:12.123Z,3.50
2018-06-16T10:56:40.822Z,3.50
2018-06-16T10:59:08.997Z,3.02
2018-06-16T11:01:36.959Z,7.22
2018-06-16T11:04:05.261Z,3.22
2018-06-16T11:06:33.500Z,3.00
2018-06-16T11:09:01.818Z,2.92
2018-06-16T11:11:30.043Z,2.60
2018-06-16T11:13:58.278Z,2.67
2018-06-16T11:16:26.923Z,3.00
2018-06-16T11:18:55.649Z,3.05
2018-06-16T11:21:24.612Z,3.00
2018-06-16T11:23:52.948Z,3.40
2018-06-16T11:26:21.438Z,3.08
2018-06-16T11:28:49.909Z,3.30
2018-06-16T11:31:18.398Z,2.85
2018-06-16T11:33:47.376Z,3.60
2018-06-16T11:36:15.605Z,3.98
2018-06-16T11:38:44.242Z,3.15
2018-06-16T11:41:12.438Z,3.85
2018-06-16T11:43:40.758Z,3.80
2018-06-16T11:46:10.100Z,3.52
2018-06-16T11:48:38.644Z,4.40
2018-06-16T11:51:10.127Z,3.77
2018-06-16T11:53:38.656Z,4.12
2018-06-16T11:56:07.115Z,3.72
2018-06-16T11:58:35.515Z,5.12
2018-06-16T12:01:04.312Z,4.20
2018-06-16T12:03:32.530Z,4.55
2018-06-16T12:06:00.698Z,3.98
2018-06-16T12:08:29.043Z,4.33
2018-06-16T12:10:57.307Z,4.78
2018-06-16T12:13:25.586Z,3.55
2018-06-16T12:15:53.816Z,9.38
2018-06-16T12:18:22.003Z,4.12
2018-06-16T12:20:50.474Z,5.67
2018-06-16T12:23:19.023Z,5.42
2018-06-16T12:25:47.422Z,4.80
2018-06-16T12:28:15.998Z,5.40
2018-06-16T12:30:44.238Z,4.92
2018-06-16T12:33:12.457Z,4.83
2018-06-16T12:35:40.719Z,5.55
2018-06-16T12:38:11.108Z,5.62
2018-06-16T12:40:39.502Z,5.55
2018-06-16T12:43:07.904Z,6.08
2018-06-16T12:45:36.392Z,5.95
2018-06-16T12:48:04.831Z,5.47
2018-06-16T12:50:33.049Z,5.90
2018-06-16T12:53:01.225Z,5.67
2018-06-16T12:55:30.677Z,6.47
2018-06-16T12:57:58.870Z,5.78
2018-06-16T13:00:27.082Z,6.05
2018-06-16T13:02:55.286Z,5.12
2018-06-16T13:05:23.520Z,6.65
2018-06-16T13:07:52.153Z,5.95
2018-06-16T13:10:20.478Z,6.42
2018-06-16T13:12:48.967Z,7.50
2018-06-16T13:15:17.492Z,7.15
2018-06-16T13:17:45.724Z,6.50
2018-06-16T13:20:14.411Z,5.75
2018-06-16T13:22:42.810Z,5.90
2018-06-16T13:25:11.255Z,6.03
2018-06-16T13:27:39.320Z,5.75
2018-06-16T13:30:07.723Z,6.17
2018-06-16T13:32:36.101Z,6.67
2018-06-16T13:35:04.573Z,6.45
2018-06-16T13:37:39.800Z,6.35
2018-06-16T13:40:08.923Z,6.53
2018-06-16T13:42:37.485Z,5.90
2018-06-16T13:45:06.084Z,6.22
2018-06-16T13:47:34.326Z,6.22
2018-06-16T13:50:02.763Z,5.80
2018-06-16T13:52:31.328Z,6.20
2018-06-16T13:54:59.656Z,6.87
2018-06-16T13:57:28.088Z,6.10
2018-06-16T13:59:56.692Z,6.20
2018-06-16T14:02:25.387Z,5.92
2018-06-16T14:04:53.974Z,6.20
2018-06-16T14:07:22.245Z,6.00
2018-06-16T14:09:51.505Z,6.08
2018-06-16T14:12:20.014Z,5.28
2018-06-16T14:14:48.334Z,5.50
2018-06-16T14:17:17.258Z,5.78
2018-06-16T14:19:45.724Z,5.40
2018-06-16T14:22:14.230Z,5.90
2018-06-16T14:24:44.566Z,5.75
2018-06-16T14:27:12.977Z,4.92
2018-06-16T14:29:41.369Z,5.25
2018-06-16T14:32:09.793Z,5.53
2018-06-16T14:34:38.027Z,6.33
2018-06-16T14:37:06.247Z,7.08
2018-06-16T14:39:34.810Z,5.00
2018-06-16T14:42:03.501Z,5.58
2018-06-16T14:44:33.172Z,5.55
2018-06-16T14:47:01.558Z,5.33
2018-06-16T14:49:29.829Z,5.08
2018-06-16T14:51:58.165Z,7.80
2018-06-16T14:54:26.749Z,5.92
2018-06-16T14:56:55.290Z,5.62
2018-06-16T14:59:23.497Z,5.60
2018-06-16T15:01:52.066Z,5.40
2018-06-16T15:04:21.236Z,5.15
2018-06-16T15:06:49.486Z,5.95
2018-06-16T15:09:17.928Z,5.58
2018-06-16T15:11:46.190Z,6.30
2018-06-16T15:14:15.080Z,9.10
2018-06-16T15:16:43.772Z,5.47
2018-06-16T15:19:12.316Z,5.83
2018-06-16T15:21:41.359Z,6.22
2018-06-16T15:24:10.274Z,5.53
2018-06-16T15:26:39.267Z,6.05
2018-06-16T15:29:07.900Z,5.67
2018-06-16T15:31:36.131Z,4.65
2018-06-16T15:34:04.526Z,5.30
2018-06-16T15:36:32.916Z,5.20
2018-06-16T15:39:01.392Z,5.30
2018-06-16T15:41:30.469Z,5.28
2018-06-16T15:43:58.860Z,5.30
2018-06-16T15:46:28.098Z,5.12
2018-06-16T15:48:56.530Z,4.90
2018-06-16T15:51:24.845Z,5.60
2018-06-16T15:53:53.265Z,5.15
2018-06-16T15:56:21.698Z,8.68
2018-06-16T15:58:50.518Z,5.58
2018-06-16T16:01:20.161Z,5.55
2018-06-16T16:03:48.405Z,5.65
2018-06-16T16:06:16.706Z,6.20
2018-06-16T16:08:45.284Z,5.30
2018-06-16T16:11:13.685Z,6.28
2018-06-16T16:13:42.147Z,5.50
2018-06-16T16:16:10.424Z,5.83
2018-06-16T16:18:39.258Z,5.80
2018-06-16T16:21:07.821Z,6.42
2018-06-16T16:23:42.815Z,5.83
2018-06-16T16:26:10.761Z,5.70
2018-06-16T16:28:39.242Z,6.10
2018-06-16T16:31:13.890Z,5.80
2018-06-16T16:33:42.478Z,6.42
2018-06-16T16:36:10.844Z,6.20
2018-06-16T16:38:39.886Z,6.15
2018-06-16T16:41:08.227Z,6.40
2018-06-16T16:43:36.510Z,12.10
2018-06-16T16:46:04.774Z,6.08
2018-06-16T16:48:33.502Z,7.83
2018-06-16T16:51:01.787Z,12.40
2018-06-16T16:53:30.226Z,7.33
2018-06-16T16:55:58.624Z,7.30
2018-06-16T16:58:27.052Z,6.43
2018-06-16T17:00:55.576Z,9.70
2018-06-16T17:03:24.278Z,6.53
2018-06-16T17:05:53.693Z,5.87
2018-06-16T17:08:22.031Z,6.00
2018-06-16T17:10:50.679Z,6.17
2018-06-16T17:13:19.233Z,5.87
2018-06-16T17:15:47.839Z,6.60
2018-06-16T17:18:16.226Z,5.80
2018-06-16T17:20:46.415Z,5.83
2018-06-16T17:23:14.765Z,7.13
2018-06-16T17:25:44.311Z,5.97
2018-06-16T17:28:12.855Z,5.60
2018-06-16T17:30:41.054Z,5.90
2018-06-16T17:33:09.222Z,9.13
2018-06-16T17:35:37.479Z,6.27
2018-06-16T17:38:05.838Z,6.47
2018-06-16T17:40:36.083Z,6.13
2018-06-16T17:43:04.694Z,6.60
2018-06-16T17:45:32.997Z,6.57
2018-06-16T17:48:01.269Z,6.43
2018-06-16T17:50:29.597Z,6.77
2018-06-16T17:52:58.237Z,6.40
2018-06-16T17:55:26.469Z,6.70
2018-06-16T17:57:54.508Z,6.60
2018-06-16T18:00:22.861Z,7.00
2018-06-16T18:02:51.697Z,6.93
2018-06-16T18:05:20.491Z,6.73
2018-06-16T18:07:49.524Z,7.00
2018-06-16T18:10:17.833Z,6.73
2018-06-16T18:12:46.203Z,6.53
2018-06-16T18:15:14.591Z,6.00
2018-06-16T18:17:43.239Z,7.20
2018-06-16T18:20:11.624Z,6.07
2018-06-16T18:22:39.975Z,6.50
2018-06-16T18:25:08.279Z,6.73
2018-06-16T18:27:36.591Z,7.20
2018-06-16T18:30:05.115Z,6.57
2018-06-16T18:32:33.327Z,6.80
2018-06-16T18:35:01.506Z,7.20
2018-06-16T18:37:29.766Z,6.63
2018-06-16T18:39:58.347Z,6.60
2018-06-16T18:42:26.767Z,6.73
2018-06-16T18:44:54.982Z,7.07
2018-06-16T18:47:23.681Z,7.37
2018-06-16T18:49:52.052Z,7.00
2018-06-16T18:52:20.354Z,7.07
2018-06-16T18:54:48.692Z,7.20
2018-06-16T18:57:16.893Z,7.70
2018-06-16T18:59:44.886Z,7.27
2018-06-16T19:02:13.218Z,7.57
2018-06-16T19:04:45.515Z,7.10
2018-06-16T19:07:13.817Z,7.07
2018-06-16T19:09:42.146Z,6.80
2018-06-16T19:12:10.368Z,7.40
2018-06-16T19:14:38.870Z,7.20
2018-06-16T19:17:09.329Z,7.60
2018-06-16T19:19:38.528Z,7.90
2018-06-16T19:22:06.933Z,13.40
2018-06-16T19:24:36.409Z,7.53
2018-06-16T19:27:04.690Z,6.83
2018-06-16T19:29:33.159Z,6.83
2018-06-16T19:32:01.582Z,7.50
2018-06-16T19:34:29.977Z,8.13
2018-06-16T19:36:58.467Z,7.30
2018-06-16T19:39:26.668Z,9.17
2018-06-16T19:41:54.858Z,7.63
2018-06-16T19:44:23.586Z,7.77
2018-06-16T19:46:51.889Z,7.60
2018-06-16T19:49:20.142Z,8.20
2018-06-16T19:51:48.459Z,7.80
2018-06-16T19:54:16.596Z,7.90
2018-06-16T19:56:44.907Z,8.17
2018-06-16T19:59:13.105Z,8.80
2018-06-16T20:01:41.349Z,7.80
2018-06-16T20:04:09.852Z,8.40
2018-06-16T20:06:38.517Z,7.73
2018-06-16T20:09:07.640Z,11.20
2018-06-16T20:11:36.096Z,9.03
2018-06-16T20:14:04.628Z,10.60
2018-06-16T20:16:33.106Z,14.20
2018-06-16T20:19:01.504Z,10.23
2018-06-16T20:21:30.157Z,9.97
2018-06-16T20:23:58.444Z,10.97
2018-06-16T20:26:27.146Z,8.43
2018-06-16T20:28:55.512Z,9.00
2018-06-16T20:31:23.914Z,8.77
2018-06-16T20:33:52.401Z,11.13
2018-06-16T20:36:23.267Z,10.50
2018-06-16T20:38:51.699Z,9.60
2018-06-16T20:41:21.528Z,12.30
2018-06-16T20:43:50.183Z,8.50
2018-06-16T20:46:18.421Z,9.50
2018-06-16T20:48:47.218Z,9.93
2018-06-16T20:51:16.140Z,8.70
2018-06-16T20:53:45.100Z,10.07
2018-06-16T20:56:13.511Z,8.80
2018-06-16T20:58:41.724Z,9.67
2018-06-16T21:01:10.019Z,8.67
2018-06-16T21:03:38.242Z,8.20
2018-06-16T21:06:06.435Z,8.43
2018-06-16T21:08:34.699Z,10.47
2018-06-16T21:11:02.921Z,8.60
2018-06-16T21:13:31.120Z,22.80
2018-06-16T21:15:59.276Z,10.80
2018-06-16T21:18:27.608Z,8.33
2018-06-16T21:20:55.820Z,10.33
2018-06-16T21:23:24.392Z,13.57
2018-06-16T21:25:52.682Z,10.47
2018-06-16T21:28:20.926Z,8.90
2018-06-16T21:30:49.368Z,9.43
2018-06-16T21:33:17.572Z,9.67
2018-06-16T21:35:45.816Z,11.33
2018-06-16T21:38:14.020Z,16.93
2018-06-16T21:40:42.443Z,11.93
2018-06-16T21:43:10.769Z,10.33
2018-06-16T21:45:39.130Z,12.00
2018-06-16T21:48:07.425Z,17.23
2018-06-16T21:50:36.760Z,14.03
2018-06-16T21:53:05.079Z,10.63
2018-06-16T21:55:33.567Z,13.17
2018-06-16T21:58:01.726Z,10.47
2018-06-16T22:00:33.837Z,11.23
2018-06-16T22:03:02.784Z,10.10
2018-06-16T22:05:31.236Z,13.47
2018-06-16T22:08:05.053Z,13.17
2018-06-16T22:10:33.755Z,25.37
2018-06-16T22:13:02.134Z,15.77
2018-06-16T22:15:30.827Z,21.70
2018-06-16T22:17:59.080Z,16.30
2018-06-16T22:20:27.689Z,9.67
2018-06-16T22:22:56.015Z,11.50
2018-06-16T22:25:24.815Z,9.97
2018-06-16T22:27:53.277Z,9.10
2018-06-16T22:30:21.882Z,9.37
2018-06-16T22:32:50.221Z,10.27
2018-06-16T22:35:18.737Z,9.40
2018-06-16T22:37:47.835Z,10.47
2018-06-16T22:40:15.929Z,9.37
2018-06-16T22:42:44.265Z,9.70
2018-06-16T22:45:12.548Z,10.47
2018-06-16T22:47:40.901Z,9.40
2018-06-16T22:50:09.240Z,9.50
2018-06-16T22:52:38.615Z,9.37
2018-06-16T22:55:06.944Z,12.90
2018-06-16T22:57:35.407Z,10.37
2018-06-16T23:00:03.799Z,10.50
2018-06-16T23:02:32.035Z,12.43
2018-06-16T23:05:00.261Z,12.77
2018-06-16T23:07:28.464Z,9.97
2018-06-16T23:09:56.788Z,12.63
2018-06-16T23:12:24.988Z,14.27
2018-06-16T23:14:53.238Z,7.90
2018-06-16T23:17:21.517Z,8.93
2018-06-16T23:19:50.020Z,8.03
2018-06-16T23:22:18.242Z,9.30
2018-06-16T23:24:46.170Z,8.30
2018-06-16T23:27:14.365Z,8.50
2018-06-16T23:29:42.556Z,8.47
2018-06-16T23:32:10.825Z,8.40
2018-06-16T23:34:39.046Z,8.00
2018-06-16T23:37:07.284Z,8.00
2018-06-16T23:39:35.946Z,8.50
2018-06-16T23:42:04.485Z,10.20
2018-06-16T23:44:32.751Z,8.73
2018-06-16T23:47:01.006Z,8.23
2018-06-16T23:49:35.596Z,8.07
2018-06-16T23:52:03.988Z,8.37
2018-06-16T23:54:32.405Z,9.23
2018-06-16T23:57:00.706Z,7.47
2018-06-16T23:59:28.978Z,9.73
